sensor_id;sensor_type;location;lat;lon;timestamp;temperature;humidity
18703;DHT22;9481;48.796;9.210;2023-02-01T00:00:00;8.20;54.90
18703;DHT22;9481;48.796;9.210;2023-02-01T00:02:26;8.20;55.20
18703;DHT22;9481;48.796;9.210;2023-02-01T00:04:51;8.20;55.10
18703;DHT22;9481;48.796;9.210;2023-02-01T00:07:17;8.20;55.10
18703;DHT22;9481;48.796;9.210;2023-02-01T00:09:43;8.10;55.10
18703;DHT22;9481;48.796;9.210;2023-02-01T00:12:08;8.10;55.20
18703;DHT22;9481;48.796;9.210;2023-02-01T00:14:34;8.10;55.50
18703;DHT22;9481;48.796;9.210;2023-02-01T00:17:07;8.10;55.40
18703;DHT22;9481;48.796;9.210;2023-02-01T00:19:34;8.10;55.50
18703;DHT22;9481;48.796;9.210;2023-02-01T00:22:00;8.10;55.50
18703;DHT22;9481;48.796;9.210;2023-02-01T00:24:26;8.10;55.50
18703;DHT22;9481;48.796;9.210;2023-02-01T00:26:52;8.00;55.50
18703;DHT22;9481;48.796;9.210;2023-02-01T00:29:19;8.10;55.60
18703;DHT22;9481;48.796;9.210;2023-02-01T00:31:45;8.10;55.70
18703;DHT22;9481;48.796;9.210;2023-02-01T00:34:13;8.10;55.80
18703;DHT22;9481;48.796;9.210;2023-02-01T00:36:41;8.00;55.60
18703;DHT22;9481;48.796;9.210;2023-02-01T00:39:08;8.00;55.60
18703;DHT22;9481;48.796;9.210;2023-02-01T00:41:34;8.00;55.60
18703;DHT22;9481;48.796;9.210;2023-02-01T00:44:00;8.10;55.70
18703;DHT22;9481;48.796;9.210;2023-02-01T00:46:27;8.10;55.70
18703;DHT22;9481;48.796;9.210;2023-02-01T00:48:53;8.10;55.70
18703;DHT22;9481;48.796;9.210;2023-02-01T00:51:24;8.00;55.60
18703;DHT22;9481;48.796;9.210;2023-02-01T00:53:52;8.10;55.60
18703;DHT22;9481;48.796;9.210;2023-02-01T00:56:19;8.10;55.60
18703;DHT22;9481;48.796;9.210;2023-02-01T00:58:45;8.10;55.50
18703;DHT22;9481;48.796;9.210;2023-02-01T01:01:22;8.10;55.60
18703;DHT22;9481;48.796;9.210;2023-02-01T01:03:55;8.10;55.80
18703;DHT22;9481;48.796;9.210;2023-02-01T01:06:27;8.10;55.60
18703;DHT22;9481;48.796;9.210;2023-02-01T01:08:57;8.10;55.50
18703;DHT22;9481;48.796;9.210;2023-02-01T01:11:27;8.10;55.50
18703;DHT22;9481;48.796;9.210;2023-02-01T01:13:56;8.20;55.70
18703;DHT22;9481;48.796;9.210;2023-02-01T01:16:24;8.20;55.80
18703;DHT22;9481;48.796;9.210;2023-02-01T01:18:51;8.10;55.80
18703;DHT22;9481;48.796;9.210;2023-02-01T01:21:18;8.10;55.70
18703;DHT22;9481;48.796;9.210;2023-02-01T01:23:45;8.10;55.80
18703;DHT22;9481;48.796;9.210;2023-02-01T01:26:15;8.10;56.00
18703;DHT22;9481;48.796;9.210;2023-02-01T01:28:43;8.10;55.80
18703;DHT22;9481;48.796;9.210;2023-02-01T01:31:10;8.10;55.90
18703;DHT22;9481;48.796;9.210;2023-02-01T01:33:38;8.10;55.80
18703;DHT22;9481;48.796;9.210;2023-02-01T01:36:08;8.10;55.80
18703;DHT22;9481;48.796;9.210;2023-02-01T01:38:41;8.10;55.90
18703;DHT22;9481;48.796;9.210;2023-02-01T01:41:08;8.10;55.80
18703;DHT22;9481;48.796;9.210;2023-02-01T01:43:52;8.20;55.80
18703;DHT22;9481;48.796;9.210;2023-02-01T01:46:28;8.20;56.00
18703;DHT22;9481;48.796;9.210;2023-02-01T01:49:17;8.20;55.80
18703;DHT22;9481;48.796;9.210;2023-02-01T01:51:52;8.30;56.20
18703;DHT22;9481;48.796;9.210;2023-02-01T01:54:28;8.30;55.70
18703;DHT22;9481;48.796;9.210;2023-02-01T01:57:03;8.30;55.70
18703;DHT22;9481;48.796;9.210;2023-02-01T01:59:32;8.30;55.70
18703;DHT22;9481;48.796;9.210;2023-02-01T02:02:02;8.30;55.60
18703;DHT22;9481;48.796;9.210;2023-02-01T02:04:27;8.30;55.60
18703;DHT22;9481;48.796;9.210;2023-02-01T02:07:08;8.30;55.60
18703;DHT22;9481;48.796;9.210;2023-02-01T02:09:38;8.40;55.80
18703;DHT22;9481;48.796;9.210;2023-02-01T02:12:04;8.40;55.60
18703;DHT22;9481;48.796;9.210;2023-02-01T02:14:30;8.30;55.60
18703;DHT22;9481;48.796;9.210;2023-02-01T02:19:46;8.40;55.60
18703;DHT22;9481;48.796;9.210;2023-02-01T02:22:37;8.40;55.60
18703;DHT22;9481;48.796;9.210;2023-02-01T02:35:42;8.50;55.60
18703;DHT22;9481;48.796;9.210;2023-02-01T02:45:16;8.40;55.50
18703;DHT22;9481;48.796;9.210;2023-02-01T02:51:12;8.40;55.50
18703;DHT22;9481;48.796;9.210;2023-02-01T02:53:48;8.40;55.80
18703;DHT22;9481;48.796;9.210;2023-02-01T02:56:40;8.40;55.60
18703;DHT22;9481;48.796;9.210;2023-02-01T02:59:26;8.40;55.50
18703;DHT22;9481;48.796;9.210;2023-02-01T03:02:13;8.40;56.40
18703;DHT22;9481;48.796;9.210;2023-02-01T03:04:59;8.40;55.70
18703;DHT22;9481;48.796;9.210;2023-02-01T03:16:18;8.40;56.30
18703;DHT22;9481;48.796;9.210;2023-02-01T03:19:07;8.40;56.30
18703;DHT22;9481;48.796;9.210;2023-02-01T03:21:41;8.40;56.40
18703;DHT22;9481;48.796;9.210;2023-02-01T03:24:24;8.30;56.20
18703;DHT22;9481;48.796;9.210;2023-02-01T03:27:07;8.30;56.10
18703;DHT22;9481;48.796;9.210;2023-02-01T03:32:27;8.30;56.20
18703;DHT22;9481;48.796;9.210;2023-02-01T03:34:54;8.30;56.10
18703;DHT22;9481;48.796;9.210;2023-02-01T03:37:26;8.30;56.30
18703;DHT22;9481;48.796;9.210;2023-02-01T03:40:06;8.40;56.40
18703;DHT22;9481;48.796;9.210;2023-02-01T03:42:47;8.40;56.70
18703;DHT22;9481;48.796;9.210;2023-02-01T03:45:31;8.30;56.50
18703;DHT22;9481;48.796;9.210;2023-02-01T03:48:06;8.30;56.50
18703;DHT22;9481;48.796;9.210;2023-02-01T03:50:35;8.20;56.40
18703;DHT22;9481;48.796;9.210;2023-02-01T03:53:09;8.20;56.60
18703;DHT22;9481;48.796;9.210;2023-02-01T03:55:38;8.20;56.80
18703;DHT22;9481;48.796;9.210;2023-02-01T03:58:14;8.20;56.60
18703;DHT22;9481;48.796;9.210;2023-02-01T04:00:57;8.20;56.70
18703;DHT22;9481;48.796;9.210;2023-02-01T04:03:26;8.20;57.00
18703;DHT22;9481;48.796;9.210;2023-02-01T04:05:52;8.20;57.40
18703;DHT22;9481;48.796;9.210;2023-02-01T04:08:20;8.20;56.90
18703;DHT22;9481;48.796;9.210;2023-02-01T04:10:46;8.20;56.90
18703;DHT22;9481;48.796;9.210;2023-02-01T04:13:12;8.20;56.90
18703;DHT22;9481;48.796;9.210;2023-02-01T04:15:38;8.20;57.10
18703;DHT22;9481;48.796;9.210;2023-02-01T04:18:04;8.20;56.90
18703;DHT22;9481;48.796;9.210;2023-02-01T04:20:30;8.20;56.80
18703;DHT22;9481;48.796;9.210;2023-02-01T04:22:56;8.20;56.80
18703;DHT22;9481;48.796;9.210;2023-02-01T04:25:21;8.20;56.80
18703;DHT22;9481;48.796;9.210;2023-02-01T04:27:47;8.30;56.80
18703;DHT22;9481;48.796;9.210;2023-02-01T04:30:13;8.30;56.80
18703;DHT22;9481;48.796;9.210;2023-02-01T04:32:39;8.30;56.70
18703;DHT22;9481;48.796;9.210;2023-02-01T04:35:06;8.40;56.80
18703;DHT22;9481;48.796;9.210;2023-02-01T04:37:32;8.40;56.70
18703;DHT22;9481;48.796;9.210;2023-02-01T04:39:58;8.40;56.70
18703;DHT22;9481;48.796;9.210;2023-02-01T04:42:24;8.50;56.70
18703;DHT22;9481;48.796;9.210;2023-02-01T04:44:50;8.50;56.60
18703;DHT22;9481;48.796;9.210;2023-02-01T04:47:16;8.50;56.50
18703;DHT22;9481;48.796;9.210;2023-02-01T04:49:41;8.50;56.40
18703;DHT22;9481;48.796;9.210;2023-02-01T04:52:07;8.50;56.40
18703;DHT22;9481;48.796;9.210;2023-02-01T04:54:33;8.50;56.40
18703;DHT22;9481;48.796;9.210;2023-02-01T04:56:59;8.50;56.30
18703;DHT22;9481;48.796;9.210;2023-02-01T04:59:26;8.50;56.30
18703;DHT22;9481;48.796;9.210;2023-02-01T05:01:51;8.50;56.30
18703;DHT22;9481;48.796;9.210;2023-02-01T05:04:17;8.50;56.30
18703;DHT22;9481;48.796;9.210;2023-02-01T05:06:44;8.50;56.30
18703;DHT22;9481;48.796;9.210;2023-02-01T05:09:10;8.50;56.20
18703;DHT22;9481;48.796;9.210;2023-02-01T05:11:36;8.50;56.30
18703;DHT22;9481;48.796;9.210;2023-02-01T05:14:20;8.50;56.30
18703;DHT22;9481;48.796;9.210;2023-02-01T05:16:46;8.50;56.20
18703;DHT22;9481;48.796;9.210;2023-02-01T05:19:12;8.50;56.20
18703;DHT22;9481;48.796;9.210;2023-02-01T05:21:37;8.50;56.30
18703;DHT22;9481;48.796;9.210;2023-02-01T05:24:03;8.50;56.30
18703;DHT22;9481;48.796;9.210;2023-02-01T05:26:36;8.50;56.30
18703;DHT22;9481;48.796;9.210;2023-02-01T05:29:03;8.50;56.20
18703;DHT22;9481;48.796;9.210;2023-02-01T05:31:30;8.50;56.20
18703;DHT22;9481;48.796;9.210;2023-02-01T05:33:56;8.50;56.20
18703;DHT22;9481;48.796;9.210;2023-02-01T05:36:21;8.50;56.10
18703;DHT22;9481;48.796;9.210;2023-02-01T05:38:47;8.60;56.20
18703;DHT22;9481;48.796;9.210;2023-02-01T05:41:13;8.60;56.10
18703;DHT22;9481;48.796;9.210;2023-02-01T05:43:38;8.60;56.00
18703;DHT22;9481;48.796;9.210;2023-02-01T05:46:04;8.70;56.10
18703;DHT22;9481;48.796;9.210;2023-02-01T05:48:30;8.70;56.00
18703;DHT22;9481;48.796;9.210;2023-02-01T05:50:56;8.70;56.00
18703;DHT22;9481;48.796;9.210;2023-02-01T05:53:22;8.70;55.90
18703;DHT22;9481;48.796;9.210;2023-02-01T05:55:48;8.70;55.90
18703;DHT22;9481;48.796;9.210;2023-02-01T05:58:13;8.70;55.90
18703;DHT22;9481;48.796;9.210;2023-02-01T06:00:39;8.70;55.90
18703;DHT22;9481;48.796;9.210;2023-02-01T06:03:06;8.80;55.90
18703;DHT22;9481;48.796;9.210;2023-02-01T06:05:33;8.80;55.90
18703;DHT22;9481;48.796;9.210;2023-02-01T06:07:58;8.70;55.90
18703;DHT22;9481;48.796;9.210;2023-02-01T06:10:24;8.70;56.00
18703;DHT22;9481;48.796;9.210;2023-02-01T06:12:50;8.70;55.90
18703;DHT22;9481;48.796;9.210;2023-02-01T06:15:15;8.70;55.90
18703;DHT22;9481;48.796;9.210;2023-02-01T06:17:43;8.70;56.00
18703;DHT22;9481;48.796;9.210;2023-02-01T06:20:11;8.70;56.00
18703;DHT22;9481;48.796;9.210;2023-02-01T06:22:39;8.70;56.10
18703;DHT22;9481;48.796;9.210;2023-02-01T06:25:06;8.60;56.30
18703;DHT22;9481;48.796;9.210;2023-02-01T06:27:33;8.50;56.20
18703;DHT22;9481;48.796;9.210;2023-02-01T06:29:59;8.50;56.30
18703;DHT22;9481;48.796;9.210;2023-02-01T06:32:25;8.40;56.40
18703;DHT22;9481;48.796;9.210;2023-02-01T06:34:51;8.40;56.40
18703;DHT22;9481;48.796;9.210;2023-02-01T06:37:21;8.30;56.40
18703;DHT22;9481;48.796;9.210;2023-02-01T06:39:48;8.30;56.50
18703;DHT22;9481;48.796;9.210;2023-02-01T06:42:14;8.40;56.60
18703;DHT22;9481;48.796;9.210;2023-02-01T06:44:40;8.30;56.50
18703;DHT22;9481;48.796;9.210;2023-02-01T06:47:06;8.40;56.60
18703;DHT22;9481;48.796;9.210;2023-02-01T06:49:31;8.40;56.70
18703;DHT22;9481;48.796;9.210;2023-02-01T06:51:57;8.40;56.70
18703;DHT22;9481;48.796;9.210;2023-02-01T06:54:25;8.40;56.70
18703;DHT22;9481;48.796;9.210;2023-02-01T06:56:52;8.40;56.60
18703;DHT22;9481;48.796;9.210;2023-02-01T06:59:18;8.40;56.50
18703;DHT22;9481;48.796;9.210;2023-02-01T07:01:43;8.50;56.60
18703;DHT22;9481;48.796;9.210;2023-02-01T07:04:12;8.50;56.50
18703;DHT22;9481;48.796;9.210;2023-02-01T07:06:38;8.50;56.50
18703;DHT22;9481;48.796;9.210;2023-02-01T07:09:05;8.60;56.40
18703;DHT22;9481;48.796;9.210;2023-02-01T07:11:31;8.60;56.40
18703;DHT22;9481;48.796;9.210;2023-02-01T07:13:57;8.60;56.30
18703;DHT22;9481;48.796;9.210;2023-02-01T07:16:24;8.60;56.30
18703;DHT22;9481;48.796;9.210;2023-02-01T07:18:51;8.60;56.20
18703;DHT22;9481;48.796;9.210;2023-02-01T07:21:19;8.70;56.30
18703;DHT22;9481;48.796;9.210;2023-02-01T07:23:45;8.70;56.30
18703;DHT22;9481;48.796;9.210;2023-02-01T07:26:12;8.70;56.30
18703;DHT22;9481;48.796;9.210;2023-02-01T07:28:39;8.70;56.20
18703;DHT22;9481;48.796;9.210;2023-02-01T07:31:09;8.70;56.10
18703;DHT22;9481;48.796;9.210;2023-02-01T07:33:41;8.70;56.10
18703;DHT22;9481;48.796;9.210;2023-02-01T07:36:11;8.70;56.00
18703;DHT22;9481;48.796;9.210;2023-02-01T07:38:38;8.80;56.00
18703;DHT22;9481;48.796;9.210;2023-02-01T07:41:05;8.80;56.00
18703;DHT22;9481;48.796;9.210;2023-02-01T07:43:32;8.70;55.90
18703;DHT22;9481;48.796;9.210;2023-02-01T07:46:02;8.70;55.90
18703;DHT22;9481;48.796;9.210;2023-02-01T07:48:28;8.70;55.80
18703;DHT22;9481;48.796;9.210;2023-02-01T07:51:08;8.80;55.90
18703;DHT22;9481;48.796;9.210;2023-02-01T07:53:36;8.80;55.90
18703;DHT22;9481;48.796;9.210;2023-02-01T07:56:02;8.80;55.80
18703;DHT22;9481;48.796;9.210;2023-02-01T07:58:30;8.80;55.80
18703;DHT22;9481;48.796;9.210;2023-02-01T08:00:55;8.80;55.70
18703;DHT22;9481;48.796;9.210;2023-02-01T08:03:40;8.80;55.70
18703;DHT22;9481;48.796;9.210;2023-02-01T08:06:05;8.80;55.70
18703;DHT22;9481;48.796;9.210;2023-02-01T08:08:32;8.90;55.80
18703;DHT22;9481;48.796;9.210;2023-02-01T08:11:02;8.80;56.40
18703;DHT22;9481;48.796;9.210;2023-02-01T08:13:30;8.90;55.80
18703;DHT22;9481;48.796;9.210;2023-02-01T08:16:00;8.90;55.80
18703;DHT22;9481;48.796;9.210;2023-02-01T08:18:28;8.90;55.70
18703;DHT22;9481;48.796;9.210;2023-02-01T08:20:53;8.90;55.60
18703;DHT22;9481;48.796;9.210;2023-02-01T08:23:20;9.00;55.60
18703;DHT22;9481;48.796;9.210;2023-02-01T08:25:46;8.90;55.50
18703;DHT22;9481;48.796;9.210;2023-02-01T08:28:12;9.00;55.50
18703;DHT22;9481;48.796;9.210;2023-02-01T08:30:39;9.00;55.50
18703;DHT22;9481;48.796;9.210;2023-02-01T08:33:05;9.00;55.40
18703;DHT22;9481;48.796;9.210;2023-02-01T08:35:37;9.00;55.40
18703;DHT22;9481;48.796;9.210;2023-02-01T08:38:04;9.00;55.40
18703;DHT22;9481;48.796;9.210;2023-02-01T08:40:30;9.10;55.40
18703;DHT22;9481;48.796;9.210;2023-02-01T08:42:57;9.10;55.40
18703;DHT22;9481;48.796;9.210;2023-02-01T08:45:25;9.10;55.40
18703;DHT22;9481;48.796;9.210;2023-02-01T08:47:54;9.10;55.20
18703;DHT22;9481;48.796;9.210;2023-02-01T08:50:22;9.10;55.30
18703;DHT22;9481;48.796;9.210;2023-02-01T08:52:49;9.10;55.10
18703;DHT22;9481;48.796;9.210;2023-02-01T08:55:16;9.10;55.20
18703;DHT22;9481;48.796;9.210;2023-02-01T08:57:42;9.20;55.30
18703;DHT22;9481;48.796;9.210;2023-02-01T09:00:12;9.20;55.30
18703;DHT22;9481;48.796;9.210;2023-02-01T09:02:41;9.20;55.10
18703;DHT22;9481;48.796;9.210;2023-02-01T09:05:07;9.30;55.10
18703;DHT22;9481;48.796;9.210;2023-02-01T09:07:33;9.30;55.10
18703;DHT22;9481;48.796;9.210;2023-02-01T09:10:00;9.30;55.00
18703;DHT22;9481;48.796;9.210;2023-02-01T09:12:28;9.30;55.00
18703;DHT22;9481;48.796;9.210;2023-02-01T09:14:56;9.40;54.90
18703;DHT22;9481;48.796;9.210;2023-02-01T09:17:27;9.30;54.80
18703;DHT22;9481;48.796;9.210;2023-02-01T09:19:53;9.40;54.80
18703;DHT22;9481;48.796;9.210;2023-02-01T09:22:19;9.40;54.80
18703;DHT22;9481;48.796;9.210;2023-02-01T09:24:46;9.40;54.80
18703;DHT22;9481;48.796;9.210;2023-02-01T09:27:11;9.40;54.70
18703;DHT22;9481;48.796;9.210;2023-02-01T09:29:37;9.40;54.60
18703;DHT22;9481;48.796;9.210;2023-02-01T09:32:02;9.40;54.60
18703;DHT22;9481;48.796;9.210;2023-02-01T09:34:28;9.50;54.60
18703;DHT22;9481;48.796;9.210;2023-02-01T09:36:54;9.40;54.40
18703;DHT22;9481;48.796;9.210;2023-02-01T09:39:20;9.50;54.40
18703;DHT22;9481;48.796;9.210;2023-02-01T09:47:32;9.50;54.30
18703;DHT22;9481;48.796;9.210;2023-02-01T09:50:08;9.50;54.30
18703;DHT22;9481;48.796;9.210;2023-02-01T09:53:21;9.60;54.20
18703;DHT22;9481;48.796;9.210;2023-02-01T09:55:57;9.60;54.20
18703;DHT22;9481;48.796;9.210;2023-02-01T09:58:42;9.70;54.30
18703;DHT22;9481;48.796;9.210;2023-02-01T10:01:22;9.70;54.10
18703;DHT22;9481;48.796;9.210;2023-02-01T10:03:50;9.70;54.10
18703;DHT22;9481;48.796;9.210;2023-02-01T10:06:45;9.80;54.20
18703;DHT22;9481;48.796;9.210;2023-02-01T10:09:51;9.80;54.10
18703;DHT22;9481;48.796;9.210;2023-02-01T10:15:22;9.90;53.90
18703;DHT22;9481;48.796;9.210;2023-02-01T10:18:09;10.00;52.90
18703;DHT22;9481;48.796;9.210;2023-02-01T10:21:17;10.00;52.90
18703;DHT22;9481;48.796;9.210;2023-02-01T10:27:09;10.00;52.60
18703;DHT22;9481;48.796;9.210;2023-02-01T10:29:41;10.00;52.60
18703;DHT22;9481;48.796;9.210;2023-02-01T10:32:19;10.00;52.60
18703;DHT22;9481;48.796;9.210;2023-02-01T10:34:57;10.10;52.50
18703;DHT22;9481;48.796;9.210;2023-02-01T10:37:30;10.00;52.40
18703;DHT22;9481;48.796;9.210;2023-02-01T10:40:10;10.00;52.30
18703;DHT22;9481;48.796;9.210;2023-02-01T10:42:41;10.10;52.40
18703;DHT22;9481;48.796;9.210;2023-02-01T10:45:11;10.10;52.30
18703;DHT22;9481;48.796;9.210;2023-02-01T10:47:41;10.10;52.00
18703;DHT22;9481;48.796;9.210;2023-02-01T10:50:37;10.10;51.70
18703;DHT22;9481;48.796;9.210;2023-02-01T10:53:55;10.20;51.30
18703;DHT22;9481;48.796;9.210;2023-02-01T10:56:27;10.20;50.80
18703;DHT22;9481;48.796;9.210;2023-02-01T10:59:21;10.20;51.10
18703;DHT22;9481;48.796;9.210;2023-02-01T11:01:50;10.20;50.90
18703;DHT22;9481;48.796;9.210;2023-02-01T11:04:24;10.20;51.00
18703;DHT22;9481;48.796;9.210;2023-02-01T11:09:49;10.20;50.40
18703;DHT22;9481;48.796;9.210;2023-02-01T11:12:28;10.20;50.40
18703;DHT22;9481;48.796;9.210;2023-02-01T11:15:02;10.20;50.30
18703;DHT22;9481;48.796;9.210;2023-02-01T11:17:42;10.20;50.40
18703;DHT22;9481;48.796;9.210;2023-02-01T11:20:21;10.20;50.30
18703;DHT22;9481;48.796;9.210;2023-02-01T11:23:03;10.20;49.90
18703;DHT22;9481;48.796;9.210;2023-02-01T11:25:29;10.20;50.20
18703;DHT22;9481;48.796;9.210;2023-02-01T11:27:58;10.20;50.00
18703;DHT22;9481;48.796;9.210;2023-02-01T11:30:36;10.20;50.00
18703;DHT22;9481;48.796;9.210;2023-02-01T11:33:07;10.30;49.50
18703;DHT22;9481;48.796;9.210;2023-02-01T11:35:39;10.20;49.80
18703;DHT22;9481;48.796;9.210;2023-02-01T11:38:36;10.30;50.00
18703;DHT22;9481;48.796;9.210;2023-02-01T11:41:31;10.30;49.30
18703;DHT22;9481;48.796;9.210;2023-02-01T11:43:59;10.30;48.80
18703;DHT22;9481;48.796;9.210;2023-02-01T11:46:32;10.30;49.60
18703;DHT22;9481;48.796;9.210;2023-02-01T11:49:23;10.30;49.40
18703;DHT22;9481;48.796;9.210;2023-02-01T11:55:14;10.30;49.30
18703;DHT22;9481;48.796;9.210;2023-02-01T12:07:23;10.50;48.90
18703;DHT22;9481;48.796;9.210;2023-02-01T12:10:01;10.50;48.90
18703;DHT22;9481;48.796;9.210;2023-02-01T12:19:03;10.60;48.60
18703;DHT22;9481;48.796;9.210;2023-02-01T12:22:08;10.60;48.70
18703;DHT22;9481;48.796;9.210;2023-02-01T12:36:07;10.50;48.10
18703;DHT22;9481;48.796;9.210;2023-02-01T12:39:02;10.60;48.20
18703;DHT22;9481;48.796;9.210;2023-02-01T12:41:56;10.50;47.60
18703;DHT22;9481;48.796;9.210;2023-02-01T12:47:54;10.50;48.10
18703;DHT22;9481;48.796;9.210;2023-02-01T12:50:29;10.40;47.80
18703;DHT22;9481;48.796;9.210;2023-02-01T12:53:15;10.40;47.90
18703;DHT22;9481;48.796;9.210;2023-02-01T12:55:50;10.40;47.80
18703;DHT22;9481;48.796;9.210;2023-02-01T13:01:15;10.40;47.80
18703;DHT22;9481;48.796;9.210;2023-02-01T13:07:27;10.40;47.80
18703;DHT22;9481;48.796;9.210;2023-02-01T13:09:59;10.40;47.80
18703;DHT22;9481;48.796;9.210;2023-02-01T13:12:36;10.40;47.80
18703;DHT22;9481;48.796;9.210;2023-02-01T13:15:14;10.40;47.90
18703;DHT22;9481;48.796;9.210;2023-02-01T13:17:49;10.30;47.90
18703;DHT22;9481;48.796;9.210;2023-02-01T13:20:34;10.30;48.00
18703;DHT22;9481;48.796;9.210;2023-02-01T13:23:29;10.30;47.70
18703;DHT22;9481;48.796;9.210;2023-02-01T13:25:58;10.30;47.70
18703;DHT22;9481;48.796;9.210;2023-02-01T13:31:31;10.30;47.80
18703;DHT22;9481;48.796;9.210;2023-02-01T13:43:06;10.30;48.20
18703;DHT22;9481;48.796;9.210;2023-02-01T13:45:43;10.30;48.10
18703;DHT22;9481;48.796;9.210;2023-02-01T13:48:29;10.30;48.00
18703;DHT22;9481;48.796;9.210;2023-02-01T13:51:28;10.30;47.70
18703;DHT22;9481;48.796;9.210;2023-02-01T13:54:04;10.30;47.90
18703;DHT22;9481;48.796;9.210;2023-02-01T13:56:40;10.30;48.00
18703;DHT22;9481;48.796;9.210;2023-02-01T14:21:22;10.40;47.90
18703;DHT22;9481;48.796;9.210;2023-02-01T14:26:28;10.40;47.90
18703;DHT22;9481;48.796;9.210;2023-02-01T14:32:21;10.40;47.60
18703;DHT22;9481;48.796;9.210;2023-02-01T14:34:53;10.40;47.30
18703;DHT22;9481;48.796;9.210;2023-02-01T14:37:26;10.40;47.60
18703;DHT22;9481;48.796;9.210;2023-02-01T14:39:58;10.30;47.50
18703;DHT22;9481;48.796;9.210;2023-02-01T14:47:48;10.30;47.50
18703;DHT22;9481;48.796;9.210;2023-02-01T14:50:42;10.30;47.70
18703;DHT22;9481;48.796;9.210;2023-02-01T14:56:12;10.30;47.90
18703;DHT22;9481;48.796;9.210;2023-02-01T14:58:50;10.30;47.70
18703;DHT22;9481;48.796;9.210;2023-02-01T15:01:24;10.30;47.80
18703;DHT22;9481;48.796;9.210;2023-02-01T15:04:10;10.30;47.80
18703;DHT22;9481;48.796;9.210;2023-02-01T15:06:49;10.30;47.80
18703;DHT22;9481;48.796;9.210;2023-02-01T15:14:47;10.30;47.80
18703;DHT22;9481;48.796;9.210;2023-02-01T15:17:29;10.30;47.80
18703;DHT22;9481;48.796;9.210;2023-02-01T15:20:20;10.30;47.90
18703;DHT22;9481;48.796;9.210;2023-02-01T15:23:04;10.30;47.80
18703;DHT22;9481;48.796;9.210;2023-02-01T15:25:34;10.30;47.70
18703;DHT22;9481;48.796;9.210;2023-02-01T15:28:04;10.30;47.90
18703;DHT22;9481;48.796;9.210;2023-02-01T15:30:34;10.30;47.90
18703;DHT22;9481;48.796;9.210;2023-02-01T15:33:19;10.30;47.90
18703;DHT22;9481;48.796;9.210;2023-02-01T15:35:50;10.30;47.90
18703;DHT22;9481;48.796;9.210;2023-02-01T15:41:05;10.30;48.00
18703;DHT22;9481;48.796;9.210;2023-02-01T15:43:39;10.30;47.90
18703;DHT22;9481;48.796;9.210;2023-02-01T15:46:21;10.20;48.10
18703;DHT22;9481;48.796;9.210;2023-02-01T15:48:50;10.20;48.00
18703;DHT22;9481;48.796;9.210;2023-02-01T15:51:24;10.20;48.10
18703;DHT22;9481;48.796;9.210;2023-02-01T15:53:56;10.20;48.00
18703;DHT22;9481;48.796;9.210;2023-02-01T15:56:32;10.20;47.80
18703;DHT22;9481;48.796;9.210;2023-02-01T15:59:02;10.20;47.80
18703;DHT22;9481;48.796;9.210;2023-02-01T16:01:30;10.20;47.60
18703;DHT22;9481;48.796;9.210;2023-02-01T16:06:53;10.20;47.30
18703;DHT22;9481;48.796;9.210;2023-02-01T16:12:49;10.20;47.30
18703;DHT22;9481;48.796;9.210;2023-02-01T16:15:17;10.20;47.30
18703;DHT22;9481;48.796;9.210;2023-02-01T16:17:42;10.20;47.20
18703;DHT22;9481;48.796;9.210;2023-02-01T16:20:09;10.20;47.30
18703;DHT22;9481;48.796;9.210;2023-02-01T16:22:36;10.20;47.50
18703;DHT22;9481;48.796;9.210;2023-02-01T16:25:01;10.20;47.40
18703;DHT22;9481;48.796;9.210;2023-02-01T16:27:27;10.20;47.50
18703;DHT22;9481;48.796;9.210;2023-02-01T16:29:53;10.20;47.70
18703;DHT22;9481;48.796;9.210;2023-02-01T16:32:21;10.20;47.50
18703;DHT22;9481;48.796;9.210;2023-02-01T16:34:48;10.20;47.50
18703;DHT22;9481;48.796;9.210;2023-02-01T16:37:20;10.20;47.40
18703;DHT22;9481;48.796;9.210;2023-02-01T16:39:50;10.20;47.30
18703;DHT22;9481;48.796;9.210;2023-02-01T16:42:16;10.20;47.30
18703;DHT22;9481;48.796;9.210;2023-02-01T16:44:42;10.20;47.80
18703;DHT22;9481;48.796;9.210;2023-02-01T16:47:16;10.20;47.70
18703;DHT22;9481;48.796;9.210;2023-02-01T16:49:44;10.20;47.60
18703;DHT22;9481;48.796;9.210;2023-02-01T16:52:18;10.20;47.70
18703;DHT22;9481;48.796;9.210;2023-02-01T16:54:47;10.20;47.70
18703;DHT22;9481;48.796;9.210;2023-02-01T16:57:15;10.20;47.70
18703;DHT22;9481;48.796;9.210;2023-02-01T16:59:43;10.30;47.70
18703;DHT22;9481;48.796;9.210;2023-02-01T17:02:16;10.30;47.70
18703;DHT22;9481;48.796;9.210;2023-02-01T17:04:44;10.30;47.60
18703;DHT22;9481;48.796;9.210;2023-02-01T17:07:13;10.30;47.50
18703;DHT22;9481;48.796;9.210;2023-02-01T17:09:42;10.30;47.50
18703;DHT22;9481;48.796;9.210;2023-02-01T17:12:28;10.30;47.40
18703;DHT22;9481;48.796;9.210;2023-02-01T17:14:56;10.30;47.40
18703;DHT22;9481;48.796;9.210;2023-02-01T17:17:25;10.20;47.50
18703;DHT22;9481;48.796;9.210;2023-02-01T17:20:03;10.20;47.60
18703;DHT22;9481;48.796;9.210;2023-02-01T17:22:31;10.20;47.50
18703;DHT22;9481;48.796;9.210;2023-02-01T17:24:57;10.20;47.50
18703;DHT22;9481;48.796;9.210;2023-02-01T17:27:22;10.20;47.40
18703;DHT22;9481;48.796;9.210;2023-02-01T17:29:48;10.20;47.60
18703;DHT22;9481;48.796;9.210;2023-02-01T17:32:17;10.20;47.60
18703;DHT22;9481;48.796;9.210;2023-02-01T17:34:46;10.20;47.50
18703;DHT22;9481;48.796;9.210;2023-02-01T17:37:31;10.20;47.60
18703;DHT22;9481;48.796;9.210;2023-02-01T17:39:59;10.20;47.40
18703;DHT22;9481;48.796;9.210;2023-02-01T17:42:27;10.20;47.50
18703;DHT22;9481;48.796;9.210;2023-02-01T17:45:00;10.20;47.40
18703;DHT22;9481;48.796;9.210;2023-02-01T17:47:36;10.20;47.40
18703;DHT22;9481;48.796;9.210;2023-02-01T17:50:03;10.20;47.60
18703;DHT22;9481;48.796;9.210;2023-02-01T17:52:29;10.20;47.70
18703;DHT22;9481;48.796;9.210;2023-02-01T17:54:54;10.20;47.60
18703;DHT22;9481;48.796;9.210;2023-02-01T17:57:20;10.20;47.50
18703;DHT22;9481;48.796;9.210;2023-02-01T17:59:46;10.20;47.60
18703;DHT22;9481;48.796;9.210;2023-02-01T18:02:22;10.20;47.60
18703;DHT22;9481;48.796;9.210;2023-02-01T18:04:49;10.20;47.50
18703;DHT22;9481;48.796;9.210;2023-02-01T18:07:16;10.20;48.20
18703;DHT22;9481;48.796;9.210;2023-02-01T18:09:42;10.20;47.50
18703;DHT22;9481;48.796;9.210;2023-02-01T18:12:20;10.20;47.70
18703;DHT22;9481;48.796;9.210;2023-02-01T18:14:48;10.20;47.60
18703;DHT22;9481;48.796;9.210;2023-02-01T18:17:13;10.10;47.70
18703;DHT22;9481;48.796;9.210;2023-02-01T18:19:39;10.20;47.70
18703;DHT22;9481;48.796;9.210;2023-02-01T18:22:05;10.10;47.50
18703;DHT22;9481;48.796;9.210;2023-02-01T18:24:34;10.10;47.60
18703;DHT22;9481;48.796;9.210;2023-02-01T18:27:01;10.10;47.60
18703;DHT22;9481;48.796;9.210;2023-02-01T18:29:27;10.10;47.70
18703;DHT22;9481;48.796;9.210;2023-02-01T18:31:52;10.10;47.70
18703;DHT22;9481;48.796;9.210;2023-02-01T18:34:19;10.10;47.60
18703;DHT22;9481;48.796;9.210;2023-02-01T18:36:50;10.10;47.70
18703;DHT22;9481;48.796;9.210;2023-02-01T18:39:16;10.10;47.70
18703;DHT22;9481;48.796;9.210;2023-02-01T18:41:47;10.10;47.70
18703;DHT22;9481;48.796;9.210;2023-02-01T18:44:14;10.10;47.60
18703;DHT22;9481;48.796;9.210;2023-02-01T18:46:41;10.10;47.70
18703;DHT22;9481;48.796;9.210;2023-02-01T18:49:07;10.10;47.60
18703;DHT22;9481;48.796;9.210;2023-02-01T18:51:33;10.10;47.60
18703;DHT22;9481;48.796;9.210;2023-02-01T18:53:59;10.10;47.50